Aviation Digital Data Service (ADDS)

Output produced by METARs form (0734 UTC 16 January 2018)
found at http://www.aviationweather.gov/adds/metars/
 
KJFK 160651Z 04008KT 10SM OVC013 M04/M07 A3050 RMK AO2 SLP326 T10391067
KJFK 160554Z 1606/1712 04006KT P6SM SCT015 
     TEMPO 1606/1609 BKN015 
     FM160900 VRB04KT P6SM BKN030 
     FM161400 10006KT P6SM BKN025 
     FM161800 14007KT P6SM BKN020 
     FM162200 13006KT 6SM -SN BKN020 
     FM170100 VRB05KT 2SM -SN BKN015 
     TEMPO 1703/1706 -RASN 
     FM170600 06006KT 1SM -RASN OVC008 
     FM170900 04007KT 1SM -SN BR OVC008
       
EGLL 160720Z AUTO 26016KT 9999 NCD 06/01 Q0995
TAF EGLL 160454Z 1606/1712 25012KT 9999 SCT025 
     PROB30 
     TEMPO 1606/1612 26015G25KT 7000 SHRA 
     TEMPO 1612/1617 26018G28KT 7000 SHRA 
     PROB30 
     TEMPO 1617/1624 27018G28KT 4000 SHGS SHRASN BKN014CB 
     TEMPO 1700/1712 27018G28KT
       
KBNA 160726Z 01013KT 10SM OVC014 M06/M09 A3047 RMK AO2 T10561089
KBNA 160716Z 1607/1706 34009KT P6SM FEW015 OVC025 
     TEMPO 1607/1610 2SM -SN OVC015 
     FM161000 34010KT 2SM -SN BR OVC015 
     FM161500 34009KT 6SM -SN OVC020 
     FM161800 34008KT P6SM OVC025